Moore, Texas
Current Conditions -  °F | °C
As of 5:55 PM on Friday 24 Oct 2014 (Local Time) from KCVB Reporting Station
Broken Clouds Broken Clouds  
Wind Chill: 30°   Ceiling: 7000
Heat Index: 30°   Visibility: 10mi
Dew Point: 12°   Wind: 5mph
Humidity: 32%   Direction: 150°SSE
Pressure: 30.08"   Gusts: NA
Location:  29.06°N, 99.01°W
Report Text: KCVB 242255Z AUTO 15004KT 10SM BKN070 30/12 A3008 RMK AO2 T03020116
Loading
Personal Weather Stations






























Interactive Weather Map
Tropical Storm Tracking
New forecast layout! Learn more

10-Day Weather Forecast

Advertisements
Track Severe Weather on mobile